Terminal Aerodrome Forecast
Issued by NWS

Home | Current Version | Previous Version | Text Only | Print | Product List | Glossary On
Versions: 1 2 3 4 5 6 7 8 9 10 11 12 13 14 15 16 17 18 19 20 21 22
000
FTAK31 PAJN 221300 AAA
TAFAKT
TAF AMD
PAKT 221329Z 2213/2312 14009G17KT P6SM VCSH OVC025
     FM221400 14009KT P6SM VCSH BKN040 BKN070
     FM221700 14007KT P6SM VCSH SCT040 BKN070
     FM230300 14011G16KT P6SM -RA BKN040 OVC050 WS020/10030KT
     FM230700 14008KT P6SM -SHRA BKN040 OVC050
      AMD LTD TO CLD VIS AND WIND 2212/2215=

USA.gov is the U.S. government's official web portal to all federal, state and local government web resources and services.